createdAt,value
2022-09-24T00:01:52.771Z,102795.78
2022-09-24T00:04:21.178Z,102798.47
2022-09-24T00:06:49.411Z,102796.81
2022-09-24T00:09:19.112Z,102798.63
2022-09-24T00:11:47.119Z,102796.94
2022-09-24T00:14:15.287Z,102801.34
2022-09-24T00:16:44.103Z,102791.81
2022-09-24T00:19:14.217Z,102793.66
2022-09-24T00:21:43.101Z,102799.78
2022-09-24T00:24:34.829Z,102796.38
2022-09-24T00:27:03.087Z,102795.56
2022-09-24T00:29:34.406Z,102800.84
2022-09-24T00:32:03.320Z,102804.47
2022-09-24T00:34:33.002Z,102799.31
2022-09-24T00:37:01.226Z,102804.63
2022-09-24T00:39:29.183Z,102801.22
2022-09-24T00:41:57.051Z,102805.63
2022-09-24T00:44:50.812Z,102806.53
2022-09-24T00:47:27.529Z,102804.00
2022-09-24T00:50:06.231Z,102804.91
2022-09-24T00:52:35.245Z,102808.44
2022-09-24T00:55:03.216Z,102798.00
2022-09-24T00:57:32.878Z,102804.16
2022-09-24T01:00:00.878Z,102806.78
2022-09-24T01:02:28.826Z,102810.34
2022-09-24T01:04:58.600Z,102819.09
2022-09-24T01:07:26.556Z,102818.22
2022-09-24T01:09:54.602Z,102822.59
2022-09-24T01:12:31.214Z,102822.59
2022-09-24T01:15:16.840Z,102819.13
2022-09-24T01:17:51.297Z,102824.41
2022-09-24T01:20:48.078Z,102822.66
2022-09-24T01:23:28.987Z,102826.22
2022-09-24T01:26:11.707Z,102823.59
2022-09-24T01:28:52.782Z,102823.59
2022-09-24T01:31:28.304Z,102827.03
2022-09-24T01:33:59.337Z,102830.50
2022-09-24T01:36:29.576Z,102834.00
2022-09-24T01:38:59.093Z,102826.97
2022-09-24T01:41:27.430Z,102826.06
2022-09-24T01:43:55.619Z,102825.09
2022-09-24T01:46:25.552Z,102825.84
2022-09-24T01:48:53.600Z,102828.38
2022-09-24T01:51:27.330Z,102829.13
2022-09-24T01:54:01.634Z,102822.91
2022-09-24T01:56:35.650Z,102827.13
2022-09-24T01:59:08.234Z,102820.09
2022-09-24T02:01:42.809Z,102820.00
2022-09-24T02:04:16.766Z,102826.00
2022-09-24T02:06:51.054Z,102819.81
2022-09-24T02:09:33.464Z,102825.88
2022-09-24T02:12:07.004Z,102821.44
2022-09-24T02:14:41.083Z,102824.00
2022-09-24T02:17:11.883Z,102831.84
2022-09-24T02:19:42.950Z,102834.41
2022-09-24T02:22:13.980Z,102830.91
2022-09-24T02:24:47.777Z,102837.81
2022-09-24T02:27:15.816Z,102836.03
2022-09-24T02:29:44.513Z,102840.38
2022-09-24T02:32:19.249Z,102840.34
2022-09-24T02:34:48.880Z,102838.53
2022-09-24T02:37:18.046Z,102841.94
2022-09-24T02:39:45.921Z,102841.84
2022-09-24T02:42:15.779Z,102841.84
2022-09-24T02:44:43.656Z,102840.03
2022-09-24T02:47:13.002Z,102841.75
2022-09-24T02:49:41.070Z,102836.53
2022-09-24T02:52:10.346Z,102846.06
2022-09-24T02:54:38.372Z,102846.91
2022-09-24T02:57:06.620Z,102852.16
2022-09-24T02:59:34.810Z,102849.47
2022-09-24T03:02:02.818Z,102855.59
2022-09-24T03:04:32.226Z,102862.56
2022-09-24T03:07:00.308Z,102856.44
2022-09-24T03:09:28.416Z,102859.06
2022-09-24T03:12:00.684Z,102864.38
2022-09-24T03:14:29.001Z,102868.75
2022-09-24T03:16:56.933Z,102863.56
2022-09-24T03:19:24.822Z,102876.66
2022-09-24T03:21:54.049Z,102875.84
2022-09-24T03:24:22.139Z,102876.75
2022-09-24T03:26:50.043Z,102878.56
2022-09-24T03:29:37.884Z,102885.63
2022-09-24T03:32:04.849Z,102883.97
2022-09-24T03:34:32.722Z,102889.22
2022-09-24T03:37:02.021Z,102893.66
2022-09-24T03:39:29.893Z,102888.44
2022-09-24T03:41:57.764Z,102898.06
2022-09-24T03:44:25.867Z,102904.16
2022-09-24T03:46:53.776Z,102905.03
2022-09-24T03:49:23.474Z,102901.53
2022-09-24T03:51:51.400Z,102908.50
2022-09-24T03:54:20.879Z,102908.44
2022-09-24T03:56:48.754Z,102911.94
2022-09-24T03:59:16.704Z,102910.22
2022-09-24T04:01:44.754Z,102912.88
2022-09-24T04:04:14.458Z,102906.84
2022-09-24T04:06:42.336Z,102899.91
2022-09-24T04:09:10.604Z,102906.88
2022-09-24T04:11:39.873Z,102904.25
2022-09-24T04:14:07.925Z,102909.47
2022-09-24T04:16:36.002Z,102905.97
2022-09-24T04:19:03.907Z,102898.09
2022-09-24T04:21:31.870Z,102897.31
2022-09-24T04:23:59.722Z,102889.53
2022-09-24T04:26:27.607Z,102902.63
2022-09-24T04:28:59.346Z,102897.47
2022-09-24T04:31:27.692Z,102897.47
2022-09-24T04:33:55.864Z,102893.13
2022-09-24T04:36:23.752Z,102891.41
2022-09-24T04:38:51.660Z,102894.03
2022-09-24T04:41:19.558Z,102884.44
2022-09-24T04:43:47.451Z,102888.81
2022-09-24T04:46:19.257Z,102881.88
2022-09-24T04:48:47.178Z,102878.41
2022-09-24T04:51:16.802Z,102883.72
2022-09-24T04:53:46.113Z,102893.50
2022-09-24T04:56:14.491Z,102891.84
2022-09-24T04:58:42.380Z,102903.34
2022-09-24T05:01:10.758Z,102913.84
2022-09-24T05:03:40.004Z,102921.69
2022-09-24T05:06:07.993Z,102919.94
2022-09-24T05:08:35.888Z,102930.44
2022-09-24T05:11:03.809Z,102933.09
2022-09-24T05:13:31.853Z,102947.97
2022-09-24T05:16:01.063Z,102942.72
2022-09-24T05:18:29.364Z,102947.97
2022-09-24T05:20:58.692Z,102955.81
2022-09-24T05:23:26.554Z,102958.44
2022-09-24T05:26:11.878Z,102965.38
2022-09-24T05:28:40.591Z,102961.94
2022-09-24T05:31:09.158Z,102968.06
2022-09-24T05:33:37.623Z,102971.53
2022-09-24T05:36:07.593Z,102974.16
2022-09-24T05:38:35.444Z,102983.72
2022-09-24T05:41:03.753Z,102985.41
2022-09-24T05:43:31.882Z,102993.25
2022-09-24T05:46:00.002Z,103004.59
2022-09-24T05:48:28.295Z,102997.63
2022-09-24T05:50:56.696Z,102993.25
2022-09-24T05:53:25.983Z,102993.31
2022-09-24T05:55:54.224Z,102985.47
2022-09-24T05:58:22.405Z,102991.59
2022-09-24T06:00:50.430Z,102992.44
2022-09-24T06:03:19.816Z,102989.81
2022-09-24T06:05:49.670Z,102987.22
2022-09-24T06:08:18.590Z,102983.78
2022-09-24T06:10:48.667Z,102983.00
2022-09-24T06:13:20.991Z,102977.81
2022-09-24T06:15:48.985Z,102986.63
2022-09-24T06:18:17.206Z,102985.88
2022-09-24T06:20:46.434Z,102988.56
2022-09-24T06:23:14.368Z,103000.00
2022-09-24T06:25:42.251Z,102999.19
2022-09-24T06:28:11.524Z,102994.84
2022-09-24T06:30:41.365Z,103004.44
2022-09-24T06:33:11.125Z,103013.19
2022-09-24T06:35:40.341Z,103005.25
2022-09-24T06:38:11.550Z,103010.47
2022-09-24T06:40:40.243Z,103013.91
2022-09-24T06:43:08.905Z,103020.81
2022-09-24T06:45:38.390Z,103024.25
2022-09-24T06:48:07.512Z,103031.09
2022-09-24T06:50:36.221Z,103025.78
2022-09-24T06:53:06.813Z,103027.44
2022-09-24T06:55:35.113Z,103030.88
2022-09-24T06:58:04.720Z,103035.19
2022-09-24T07:00:32.950Z,103036.97
2022-09-24T07:03:02.326Z,103031.75
2022-09-24T07:05:30.332Z,103037.00
2022-09-24T07:07:58.228Z,103038.75
2022-09-24T07:10:28.027Z,103038.75
2022-09-24T07:12:56.278Z,103029.22
2022-09-24T07:15:24.267Z,103042.31
2022-09-24T07:17:56.493Z,103039.69
2022-09-24T07:20:28.215Z,103035.31
2022-09-24T07:22:56.909Z,103026.59
2022-09-24T07:25:25.010Z,103039.69
2022-09-24T07:27:53.222Z,103035.31
2022-09-24T07:30:21.525Z,103022.28
2022-09-24T07:32:50.656Z,103034.50
2022-09-24T07:35:21.068Z,103031.91
2022-09-24T07:37:50.467Z,103021.44
2022-09-24T07:40:18.443Z,103023.22
2022-09-24T07:42:49.799Z,103024.06
2022-09-24T07:45:18.385Z,103029.28
2022-09-24T07:47:46.243Z,103030.16
2022-09-24T07:50:14.307Z,103021.41
2022-09-24T07:52:42.258Z,103024.91
2022-09-24T07:55:11.860Z,103025.72
2022-09-24T07:57:40.467Z,103028.41
2022-09-24T08:00:10.523Z,103030.16
2022-09-24T08:02:38.573Z,103029.28
2022-09-24T08:05:07.389Z,103032.78
2022-09-24T08:07:35.473Z,103031.91
2022-09-24T08:10:03.409Z,103029.28
2022-09-24T08:12:32.687Z,103030.16
2022-09-24T08:15:00.625Z,103033.66
2022-09-24T08:17:28.527Z,103035.31
2022-09-24T08:19:57.134Z,103031.75
2022-09-24T08:22:26.391Z,103029.88
2022-09-24T08:24:54.959Z,103021.88
2022-09-24T08:27:23.896Z,103030.47
2022-09-24T08:29:53.457Z,103019.88
2022-09-24T08:32:21.392Z,103014.50
2022-09-24T08:34:49.285Z,103003.06
2022-09-24T08:37:17.323Z,103002.97
2022-09-24T08:39:45.209Z,102990.69
2022-09-24T08:42:16.415Z,102990.59
2022-09-24T08:45:04.992Z,102976.59
2022-09-24T08:47:43.118Z,102969.53
2022-09-24T08:50:16.817Z,102968.59
2022-09-24T08:52:58.540Z,102955.41
2022-09-24T08:55:32.961Z,102937.91
2022-09-24T08:58:21.432Z,102934.28
2022-09-24T09:00:55.746Z,102929.81
2022-09-24T09:03:36.567Z,102920.09
2022-09-24T09:06:10.158Z,102903.34
2022-09-24T09:09:05.729Z,102884.06
2022-09-24T09:11:37.998Z,102873.53
2022-09-24T09:14:12.733Z,102857.72
2022-09-24T09:16:47.862Z,102851.53
2022-09-24T09:19:18.614Z,102834.09
2022-09-24T09:21:53.739Z,102815.59
2022-09-24T09:24:24.300Z,102808.56
2022-09-24T09:26:55.979Z,102796.28
2022-09-24T09:29:26.517Z,102796.25
2022-09-24T09:32:06.417Z,102785.75
2022-09-24T09:34:48.082Z,102785.66
2022-09-24T09:37:26.484Z,102775.06
2022-09-24T09:40:02.926Z,102777.25
2022-09-24T09:42:33.148Z,102770.63
2022-09-24T09:45:02.962Z,102758.72
2022-09-24T09:47:41.668Z,102739.22
2022-09-24T09:50:21.062Z,102739.81
2022-09-24T09:52:48.947Z,102731.72
2022-09-24T09:55:25.616Z,102738.56
2022-09-24T09:57:54.137Z,102721.94
2022-09-24T10:00:28.253Z,102712.19
2022-09-24T10:02:56.421Z,102711.16
2022-09-24T10:05:28.795Z,102704.88
2022-09-24T10:07:58.186Z,102698.59
2022-09-24T10:10:28.468Z,102701.03
2022-09-24T10:13:08.875Z,102699.16
2022-09-24T10:15:50.231Z,102693.69
2022-09-24T10:18:19.978Z,102686.50
2022-09-24T10:20:49.612Z,102685.44
2022-09-24T10:23:22.386Z,102678.91
2022-09-24T10:25:53.355Z,102677.63
2022-09-24T10:28:39.874Z,102666.69
2022-09-24T10:31:13.323Z,102649.69
2022-09-24T10:33:42.827Z,102637.06
2022-09-24T10:36:18.104Z,102631.69
2022-09-24T10:38:46.059Z,102626.25
2022-09-24T10:41:23.606Z,102618.25
2022-09-24T10:43:52.701Z,102602.97
2022-09-24T10:46:50.351Z,102609.56
2022-09-24T10:49:32.054Z,102605.00
2022-09-24T10:52:10.902Z,102594.31
2022-09-24T10:54:49.859Z,102589.56
2022-09-24T10:57:29.734Z,102573.63
2022-09-24T11:00:05.230Z,102571.78
2022-09-24T11:02:52.346Z,102552.31
2022-09-24T11:05:23.634Z,102556.38
2022-09-24T11:08:03.145Z,102543.91
2022-09-24T11:11:17.520Z,102537.00
2022-09-24T11:13:55.867Z,102522.78
2022-09-24T11:16:52.222Z,102519.38
2022-09-24T11:19:51.061Z,102496.59
2022-09-24T11:22:30.661Z,102501.72
2022-09-24T11:25:19.828Z,102492.31
2022-09-24T11:27:57.775Z,102488.31
2022-09-24T11:30:36.301Z,102480.06
2022-09-24T11:33:27.407Z,102462.00
2022-09-24T11:36:07.641Z,102464.22
2022-09-24T11:38:54.466Z,102452.56
2022-09-24T11:41:37.113Z,102444.53
2022-09-24T11:44:45.082Z,102432.28
2022-09-24T11:47:26.204Z,102423.66
2022-09-24T11:50:13.240Z,102412.78
2022-09-24T11:52:46.424Z,102402.06
2022-09-24T11:55:18.614Z,102387.09
2022-09-24T11:57:54.218Z,102370.72
2022-09-24T12:00:23.192Z,102361.84
2022-09-24T12:02:55.757Z,102362.13
2022-09-24T12:05:32.693Z,102367.34
2022-09-24T12:08:09.623Z,102352.66
2022-09-24T12:10:43.273Z,102351.34
2022-09-24T12:13:19.807Z,102352.03
2022-09-24T12:15:53.260Z,102353.38
2022-09-24T12:18:26.773Z,102350.25
2022-09-24T12:21:01.540Z,102348.47
2022-09-24T12:23:33.647Z,102336.06
2022-09-24T12:26:05.928Z,102340.41
2022-09-24T12:29:00.576Z,102333.00
2022-09-24T12:32:06.555Z,102325.91
2022-09-24T12:34:45.399Z,102314.84
2022-09-24T12:37:17.206Z,102305.56
2022-09-24T12:39:53.912Z,102311.75
2022-09-24T12:42:26.068Z,102302.75
2022-09-24T12:45:00.741Z,102298.75
2022-09-24T12:47:33.265Z,102300.16
2022-09-24T12:50:03.539Z,102293.50
2022-09-24T12:52:36.550Z,102287.97
2022-09-24T12:55:06.577Z,102292.84
2022-09-24T12:57:37.222Z,102285.31
2022-09-24T13:00:37.811Z,102281.25
2022-09-24T13:03:07.158Z,102280.00
2022-09-24T13:05:47.935Z,102282.16
2022-09-24T13:08:26.759Z,102286.31
2022-09-24T13:10:56.908Z,102289.59
2022-09-24T13:13:27.889Z,102279.16
2022-09-24T13:16:04.541Z,102280.91
2022-09-24T13:18:35.446Z,102284.81
2022-09-24T13:21:06.711Z,102284.63
2022-09-24T13:23:46.605Z,102283.34
2022-09-24T13:26:27.561Z,102280.50
2022-09-24T13:28:57.701Z,102276.44
2022-09-24T13:31:34.357Z,102272.69
2022-09-24T13:34:06.024Z,102278.63
2022-09-24T13:36:45.256Z,102281.09
2022-09-24T13:39:17.640Z,102278.69
2022-09-24T13:41:54.988Z,102275.63
2022-09-24T13:44:27.813Z,102270.78
2022-09-24T13:47:01.179Z,102268.66
2022-09-24T13:49:31.829Z,102272.91
2022-09-24T13:52:11.105Z,102282.88
2022-09-24T13:54:46.649Z,102296.38
2022-09-24T13:57:21.581Z,102304.25
2022-09-24T13:59:49.486Z,102318.22
2022-09-24T14:02:26.988Z,102332.03
2022-09-24T14:04:57.616Z,102325.28
2022-09-24T14:07:26.346Z,102328.03
2022-09-24T14:10:05.353Z,102329.88
2022-09-24T14:12:33.485Z,102332.56
2022-09-24T14:15:04.519Z,102342.31
2022-09-24T14:17:33.825Z,102347.69
2022-09-24T14:20:01.830Z,102354.03
2022-09-24T14:22:34.585Z,102334.84
2022-09-24T14:25:05.201Z,102322.69
2022-09-24T14:27:36.389Z,102317.94
2022-09-24T14:30:07.307Z,102305.97
2022-09-24T14:32:39.395Z,102292.19
2022-09-24T14:35:13.826Z,102284.41
2022-09-24T14:37:48.800Z,102271.41
2022-09-24T14:40:18.637Z,102257.84
2022-09-24T14:42:49.193Z,102260.81
2022-09-24T14:45:21.719Z,102241.31
2022-09-24T14:48:00.855Z,102242.00
2022-09-24T14:50:39.920Z,102235.41
2022-09-24T14:53:21.533Z,102232.16
2022-09-24T14:55:50.281Z,102223.44
2022-09-24T14:58:36.420Z,102214.13
2022-09-24T15:01:08.238Z,102210.00
2022-09-24T15:03:42.661Z,102203.75
2022-09-24T15:06:21.688Z,102205.91
2022-09-24T15:09:00.610Z,102202.16
2022-09-24T15:11:31.541Z,102207.50
2022-09-24T15:14:01.371Z,102217.06
2022-09-24T15:16:31.875Z,102223.34
2022-09-24T15:19:15.449Z,102224.00
2022-09-24T15:21:43.397Z,102242.34
2022-09-24T15:24:12.092Z,102238.28
2022-09-24T15:26:42.870Z,102236.84
2022-09-24T15:29:18.506Z,102239.78
2022-09-24T15:31:46.482Z,102241.03
2022-09-24T15:34:19.769Z,102251.94
2022-09-24T15:36:48.470Z,102257.31
2022-09-24T15:39:18.468Z,102254.72
2022-09-24T15:41:46.621Z,102254.84
2022-09-24T15:44:21.943Z,102256.06
2022-09-24T15:46:51.297Z,102256.16
2022-09-24T15:49:22.190Z,102261.41
2022-09-24T15:51:51.957Z,102257.94
2022-09-24T15:54:20.268Z,102258.28
2022-09-24T15:56:52.302Z,102249.88
2022-09-24T15:59:21.709Z,102251.34
2022-09-24T16:01:52.279Z,102232.25
2022-09-24T16:04:21.652Z,102229.03
2022-09-24T16:06:49.779Z,102231.28
2022-09-24T16:09:17.720Z,102227.69
2022-09-24T16:11:45.690Z,102218.50
2022-09-24T16:14:13.586Z,102215.56
2022-09-24T16:16:41.694Z,102209.88
2022-09-24T16:19:10.281Z,102210.81
2022-09-24T16:21:39.657Z,102217.41
2022-09-24T16:24:07.827Z,102232.03
2022-09-24T16:26:35.765Z,102238.31
2022-09-24T16:29:04.421Z,102243.19
2022-09-24T16:31:32.813Z,102257.97
2022-09-24T16:34:01.087Z,102254.41
2022-09-24T16:36:29.053Z,102253.72
2022-09-24T16:38:58.647Z,102242.22
2022-09-24T16:41:26.551Z,102253.16
2022-09-24T16:43:57.150Z,102265.88
2022-09-24T16:46:25.100Z,102285.72
2022-09-24T16:48:53.042Z,102303.25
2022-09-24T16:51:21.408Z,102319.84
2022-09-24T16:53:49.945Z,102338.81
2022-09-24T16:56:19.199Z,102348.38
2022-09-24T16:58:48.235Z,102365.47
2022-09-24T17:01:18.126Z,102376.69
2022-09-24T17:03:51.186Z,102389.09
2022-09-24T17:06:20.636Z,102394.25
2022-09-24T17:09:06.085Z,102403.16
2022-09-24T17:11:35.788Z,102415.72
2022-09-24T17:14:04.414Z,102423.75
2022-09-24T17:16:32.276Z,102429.81
2022-09-24T17:19:00.560Z,102436.53
2022-09-24T17:21:28.672Z,102446.50
2022-09-24T17:23:56.913Z,102446.66
2022-09-24T17:26:25.096Z,102449.50
2022-09-24T17:28:55.364Z,102451.38
2022-09-24T17:31:25.487Z,102447.97
2022-09-24T17:33:57.250Z,102449.75
2022-09-24T17:36:26.556Z,102448.19
2022-09-24T17:38:56.168Z,102451.03
2022-09-24T17:41:24.528Z,102446.00
2022-09-24T17:43:54.205Z,102454.09
2022-09-24T17:46:23.164Z,102451.69
2022-09-24T17:48:53.056Z,102450.13
2022-09-24T17:51:23.195Z,102455.53
2022-09-24T17:53:53.043Z,102460.97
2022-09-24T17:56:22.501Z,102465.44
2022-09-24T17:58:52.218Z,102462.88
2022-09-24T18:01:23.460Z,102469.13
2022-09-24T18:03:54.873Z,102482.41
2022-09-24T18:06:27.110Z,102480.84
2022-09-24T18:08:58.096Z,102481.00
2022-09-24T18:11:27.839Z,102487.22
2022-09-24T18:13:57.726Z,102488.22
2022-09-24T18:16:28.682Z,102486.53
2022-09-24T18:18:57.999Z,102485.75
2022-09-24T18:21:25.954Z,102492.06
2022-09-24T18:23:55.134Z,102497.41
2022-09-24T18:26:24.571Z,102504.59
2022-09-24T18:28:54.719Z,102496.91
2022-09-24T18:31:25.535Z,102503.13
2022-09-24T18:33:55.637Z,102504.22
2022-09-24T18:36:25.634Z,102503.34
2022-09-24T18:38:54.378Z,102502.56
2022-09-24T18:41:24.139Z,102499.16
2022-09-24T18:43:52.844Z,102496.53
2022-09-24T18:46:21.964Z,102493.03
2022-09-24T18:48:52.414Z,102496.66
2022-09-24T18:51:24.112Z,102496.72
2022-09-24T18:53:53.834Z,102494.16
2022-09-24T18:56:22.281Z,102498.69
2022-09-24T18:58:50.162Z,102502.41
2022-09-24T19:01:18.150Z,102501.66
2022-09-24T19:03:46.063Z,102499.38
2022-09-24T19:06:14.209Z,102505.03
2022-09-24T19:08:44.396Z,102513.16
2022-09-24T19:11:15.902Z,102523.94
2022-09-24T19:13:48.488Z,102531.16
2022-09-24T19:16:17.831Z,102536.69
2022-09-24T19:18:45.797Z,102536.00
2022-09-24T19:21:15.677Z,102543.19
2022-09-24T19:23:46.931Z,102547.78
2022-09-24T19:26:17.082Z,102552.38
2022-09-24T19:28:45.543Z,102560.44
2022-09-24T19:31:15.060Z,102568.38
2022-09-24T19:33:44.051Z,102573.69
2022-09-24T19:36:12.270Z,102574.56
2022-09-24T19:38:40.374Z,102573.69
2022-09-24T19:41:13.506Z,102579.00
2022-09-24T19:43:43.646Z,102579.13
2022-09-24T19:46:14.594Z,102581.88
2022-09-24T19:48:44.397Z,102586.41
2022-09-24T19:51:15.365Z,102595.47
2022-09-24T19:53:43.776Z,102594.06
2022-09-24T19:56:14.269Z,102596.06
2022-09-24T19:58:42.384Z,102598.00
2022-09-24T20:01:16.340Z,102610.44
2022-09-24T20:03:45.530Z,102608.84
2022-09-24T20:06:15.179Z,102616.03
2022-09-24T20:08:43.814Z,102616.16
2022-09-24T20:11:15.377Z,102624.13
2022-09-24T20:13:46.389Z,102627.66
2022-09-24T20:16:16.351Z,102630.38
2022-09-24T20:18:45.077Z,102633.13
2022-09-24T20:21:13.672Z,102635.88
2022-09-24T20:23:42.019Z,102642.06
2022-09-24T20:26:30.877Z,102653.53
2022-09-24T20:28:59.181Z,102654.50
2022-09-24T20:31:27.380Z,102664.25
2022-09-24T20:33:55.777Z,102665.22
2022-09-24T20:36:24.962Z,102672.34
2022-09-24T20:38:53.939Z,102675.06
2022-09-24T20:41:25.635Z,102674.34
2022-09-24T20:43:55.591Z,102673.53
2022-09-24T20:46:25.720Z,102678.91
2022-09-24T20:48:54.770Z,102679.09
2022-09-24T20:51:23.071Z,102684.53
2022-09-24T20:53:51.457Z,102675.94
2022-09-24T20:56:20.044Z,102680.44
2022-09-24T20:58:53.272Z,102686.69
2022-09-24T21:01:22.635Z,102696.38
2022-09-24T21:03:51.094Z,102694.69
2022-09-24T21:06:22.925Z,102698.28
2022-09-24T21:08:51.227Z,102697.53
2022-09-24T21:11:22.876Z,102698.44
2022-09-24T21:13:54.704Z,102706.38
2022-09-24T21:16:24.985Z,102713.44
2022-09-24T21:18:55.221Z,102707.44
2022-09-24T21:21:24.724Z,102717.13
2022-09-24T21:23:54.312Z,102728.56
2022-09-24T21:26:23.828Z,102732.06
2022-09-24T21:28:56.076Z,102737.38
2022-09-24T21:31:26.443Z,102724.28
2022-09-24T21:33:54.617Z,102728.72
2022-09-24T21:36:24.325Z,102726.19
2022-09-24T21:38:55.378Z,102730.63
2022-09-24T21:41:23.507Z,102728.97
2022-09-24T21:43:53.524Z,102739.47
2022-09-24T21:46:21.690Z,102736.16
2022-09-24T21:48:51.055Z,102742.34
2022-09-24T21:51:21.777Z,102756.38
2022-09-24T21:53:50.135Z,102761.72
2022-09-24T21:56:19.347Z,102762.72
2022-09-24T21:58:47.352Z,102765.41
2022-09-24T22:01:19.548Z,102778.59
2022-09-24T22:03:49.785Z,102771.69
2022-09-24T22:06:17.694Z,102772.63
2022-09-24T22:08:47.202Z,102773.63
2022-09-24T22:11:15.570Z,102774.63
2022-09-24T22:13:43.726Z,102772.94
2022-09-24T22:16:12.943Z,102773.88
2022-09-24T22:18:42.196Z,102773.97
2022-09-24T22:21:11.815Z,102775.81
2022-09-24T22:23:40.646Z,102778.47
2022-09-24T22:26:09.767Z,102785.47
2022-09-24T22:28:38.726Z,102788.03
2022-09-24T22:31:08.276Z,102786.19
2022-09-24T22:33:54.298Z,102792.22
2022-09-24T22:36:24.401Z,102792.22
2022-09-24T22:38:53.216Z,102789.59
2022-09-24T22:41:21.466Z,102793.16
2022-09-24T22:43:49.498Z,102790.50
2022-09-24T22:46:17.974Z,102794.69
2022-09-24T22:48:47.482Z,102788.44
2022-09-24T22:51:16.237Z,102792.66
2022-09-24T22:53:45.511Z,102797.75
2022-09-24T22:56:15.176Z,102795.97
2022-09-24T22:58:44.979Z,102795.91
2022-09-24T23:01:15.420Z,102804.56
2022-09-24T23:03:44.356Z,102803.69
2022-09-24T23:06:12.835Z,102808.84
2022-09-24T23:08:42.450Z,102815.81
2022-09-24T23:11:13.930Z,102819.34
2022-09-24T23:13:45.165Z,102821.16
2022-09-24T23:16:15.752Z,102829.91
2022-09-24T23:18:45.104Z,102815.13
2022-09-24T23:21:15.794Z,102828.31
2022-09-24T23:23:44.658Z,102830.16
2022-09-24T23:26:16.926Z,102823.28
2022-09-24T23:28:46.145Z,102825.09
2022-09-24T23:31:16.161Z,102828.69
2022-09-24T23:33:44.331Z,102827.06
2022-09-24T23:36:14.303Z,102832.38
2022-09-24T23:38:43.301Z,102828.16
2022-09-24T23:41:13.827Z,102832.66
2022-09-24T23:43:42.365Z,102838.06
2022-09-24T23:46:11.533Z,102841.72
2022-09-24T23:48:40.107Z,102842.75
2022-09-24T23:51:08.881Z,102849.00
2022-09-24T23:53:37.737Z,102842.19
2022-09-24T23:56:07.242Z,102845.88
2022-09-24T23:58:36.724Z,102843.44
